sensor_id;sensor_type;location;lat;lon;timestamp;P1;durP1;ratioP1;P2;durP2;ratioP2
15629;SDS011;7914;50.842;0.166;2022-11-15T00:01:36;1.00;;;1.00;;
15629;SDS011;7914;50.842;0.166;2022-11-15T00:04:04;1.10;;;1.10;;
15629;SDS011;7914;50.842;0.166;2022-11-15T00:06:31;1.00;;;1.00;;
15629;SDS011;7914;50.842;0.166;2022-11-15T00:08:57;0.90;;;0.90;;
15629;SDS011;7914;50.842;0.166;2022-11-15T00:11:23;0.90;;;0.90;;
15629;SDS011;7914;50.842;0.166;2022-11-15T00:13:49;0.90;;;0.90;;
15629;SDS011;7914;50.842;0.166;2022-11-15T00:16:15;1.00;;;1.00;;
15629;SDS011;7914;50.842;0.166;2022-11-15T00:18:40;1.10;;;1.10;;
15629;SDS011;7914;50.842;0.166;2022-11-15T00:21:07;0.90;;;0.90;;
15629;SDS011;7914;50.842;0.166;2022-11-15T00:23:35;1.10;;;1.10;;
15629;SDS011;7914;50.842;0.166;2022-11-15T00:26:02;1.00;;;1.00;;
15629;SDS011;7914;50.842;0.166;2022-11-15T00:28:28;1.10;;;1.10;;
15629;SDS011;7914;50.842;0.166;2022-11-15T00:30:59;1.00;;;1.00;;
15629;SDS011;7914;50.842;0.166;2022-11-15T00:33:26;1.10;;;1.10;;
15629;SDS011;7914;50.842;0.166;2022-11-15T00:35:52;1.00;;;1.00;;
15629;SDS011;7914;50.842;0.166;2022-11-15T00:38:17;0.90;;;0.90;;
15629;SDS011;7914;50.842;0.166;2022-11-15T00:40:43;1.00;;;1.00;;
15629;SDS011;7914;50.842;0.166;2022-11-15T00:43:09;0.93;;;0.93;;
15629;SDS011;7914;50.842;0.166;2022-11-15T00:45:34;1.10;;;1.10;;
15629;SDS011;7914;50.842;0.166;2022-11-15T00:48:00;1.00;;;1.00;;
15629;SDS011;7914;50.842;0.166;2022-11-15T00:50:26;1.20;;;1.20;;
15629;SDS011;7914;50.842;0.166;2022-11-15T00:52:51;1.10;;;1.10;;
15629;SDS011;7914;50.842;0.166;2022-11-15T00:55:17;1.30;;;1.30;;
15629;SDS011;7914;50.842;0.166;2022-11-15T00:57:44;1.20;;;1.20;;
15629;SDS011;7914;50.842;0.166;2022-11-15T01:00:10;1.20;;;1.20;;
15629;SDS011;7914;50.842;0.166;2022-11-15T01:02:37;1.30;;;1.30;;
15629;SDS011;7914;50.842;0.166;2022-11-15T01:05:03;1.07;;;1.07;;
15629;SDS011;7914;50.842;0.166;2022-11-15T01:07:29;1.20;;;1.20;;
15629;SDS011;7914;50.842;0.166;2022-11-15T01:09:55;1.30;;;1.30;;
15629;SDS011;7914;50.842;0.166;2022-11-15T01:12:21;1.10;;;1.10;;
15629;SDS011;7914;50.842;0.166;2022-11-15T01:14:47;1.10;;;1.10;;
15629;SDS011;7914;50.842;0.166;2022-11-15T01:17:12;1.23;;;1.23;;
15629;SDS011;7914;50.842;0.166;2022-11-15T01:19:39;1.10;;;1.10;;
15629;SDS011;7914;50.842;0.166;2022-11-15T01:22:05;1.13;;;1.13;;
15629;SDS011;7914;50.842;0.166;2022-11-15T01:24:30;1.30;;;1.30;;
15629;SDS011;7914;50.842;0.166;2022-11-15T01:26:56;0.97;;;0.97;;
15629;SDS011;7914;50.842;0.166;2022-11-15T01:29:22;1.30;;;1.30;;
15629;SDS011;7914;50.842;0.166;2022-11-15T01:31:47;1.20;;;1.20;;
15629;SDS011;7914;50.842;0.166;2022-11-15T01:34:13;1.30;;;1.30;;
15629;SDS011;7914;50.842;0.166;2022-11-15T01:36:40;1.23;;;1.23;;
15629;SDS011;7914;50.842;0.166;2022-11-15T01:39:05;1.40;;;1.40;;
15629;SDS011;7914;50.842;0.166;2022-11-15T01:41:32;1.30;;;1.30;;
15629;SDS011;7914;50.842;0.166;2022-11-15T01:47:02;1.50;;;1.50;;
15629;SDS011;7914;50.842;0.166;2022-11-15T01:49:32;1.40;;;1.40;;
15629;SDS011;7914;50.842;0.166;2022-11-15T01:52:00;1.50;;;1.50;;
15629;SDS011;7914;50.842;0.166;2022-11-15T01:54:28;1.37;;;1.37;;
15629;SDS011;7914;50.842;0.166;2022-11-15T01:56:56;1.70;;;1.70;;
15629;SDS011;7914;50.842;0.166;2022-11-15T01:59:29;1.50;;;1.50;;
15629;SDS011;7914;50.842;0.166;2022-11-15T02:01:55;1.80;;;1.80;;
15629;SDS011;7914;50.842;0.166;2022-11-15T02:04:28;1.63;;;1.63;;
15629;SDS011;7914;50.842;0.166;2022-11-15T02:06:56;1.73;;;1.73;;
15629;SDS011;7914;50.842;0.166;2022-11-15T02:09:22;1.80;;;1.80;;
15629;SDS011;7914;50.842;0.166;2022-11-15T02:11:48;1.87;;;1.87;;
15629;SDS011;7914;50.842;0.166;2022-11-15T02:14:16;1.80;;;1.80;;
15629;SDS011;7914;50.842;0.166;2022-11-15T02:19:38;1.80;;;1.80;;
15629;SDS011;7914;50.842;0.166;2022-11-15T02:30:45;2.23;;;2.13;;
15629;SDS011;7914;50.842;0.166;2022-11-15T02:36:15;2.30;;;2.20;;
15629;SDS011;7914;50.842;0.166;2022-11-15T02:41:55;2.50;;;2.40;;
15629;SDS011;7914;50.842;0.166;2022-11-15T02:44:34;2.40;;;2.30;;
15629;SDS011;7914;50.842;0.166;2022-11-15T02:47:06;2.63;;;2.53;;
15629;SDS011;7914;50.842;0.166;2022-11-15T02:49:37;2.40;;;2.30;;
15629;SDS011;7914;50.842;0.166;2022-11-15T02:52:06;2.30;;;2.20;;
15629;SDS011;7914;50.842;0.166;2022-11-15T02:54:32;2.47;;;2.37;;
15629;SDS011;7914;50.842;0.166;2022-11-15T02:57:04;2.10;;;2.00;;
15629;SDS011;7914;50.842;0.166;2022-11-15T03:08:09;2.20;;;2.10;;
15629;SDS011;7914;50.842;0.166;2022-11-15T03:13:21;2.50;;;2.40;;
15629;SDS011;7914;50.842;0.166;2022-11-15T03:16:06;2.47;;;2.37;;
15629;SDS011;7914;50.842;0.166;2022-11-15T03:19:40;2.43;;;2.33;;
15629;SDS011;7914;50.842;0.166;2022-11-15T03:21:46;2.57;;;2.47;;
15629;SDS011;7914;50.842;0.166;2022-11-15T03:24:13;2.50;;;2.40;;
15629;SDS011;7914;50.842;0.166;2022-11-15T03:26:41;2.47;;;2.37;;
15629;SDS011;7914;50.842;0.166;2022-11-15T03:29:12;2.20;;;2.10;;
15629;SDS011;7914;50.842;0.166;2022-11-15T03:31:42;1.70;;;1.70;;
15629;SDS011;7914;50.842;0.166;2022-11-15T03:34:28;1.97;;;1.90;;
15629;SDS011;7914;50.842;0.166;2022-11-15T03:36:54;2.10;;;2.00;;
15629;SDS011;7914;50.842;0.166;2022-11-15T03:39:20;2.00;;;1.90;;
15629;SDS011;7914;50.842;0.166;2022-11-15T03:41:58;2.23;;;2.13;;
15629;SDS011;7914;50.842;0.166;2022-11-15T03:44:51;1.90;;;1.90;;
15629;SDS011;7914;50.842;0.166;2022-11-15T03:47:43;2.13;;;2.03;;
15629;SDS011;7914;50.842;0.166;2022-11-15T03:50:16;2.17;;;2.07;;
15629;SDS011;7914;50.842;0.166;2022-11-15T03:52:44;2.10;;;2.00;;
15629;SDS011;7914;50.842;0.166;2022-11-15T03:55:13;1.83;;;1.83;;
15629;SDS011;7914;50.842;0.166;2022-11-15T03:57:41;2.20;;;2.10;;
15629;SDS011;7914;50.842;0.166;2022-11-15T04:00:07;1.80;;;1.80;;
15629;SDS011;7914;50.842;0.166;2022-11-15T04:02:34;2.20;;;2.10;;
15629;SDS011;7914;50.842;0.166;2022-11-15T04:04:59;2.10;;;2.00;;
15629;SDS011;7914;50.842;0.166;2022-11-15T04:07:25;2.20;;;2.10;;
15629;SDS011;7914;50.842;0.166;2022-11-15T04:09:50;2.23;;;2.13;;
15629;SDS011;7914;50.842;0.166;2022-11-15T04:12:39;1.83;;;1.83;;
15629;SDS011;7914;50.842;0.166;2022-11-15T04:15:12;2.13;;;2.03;;
15629;SDS011;7914;50.842;0.166;2022-11-15T04:17:43;2.27;;;2.17;;
15629;SDS011;7914;50.842;0.166;2022-11-15T04:22:56;1.90;;;1.90;;
15629;SDS011;7914;50.842;0.166;2022-11-15T04:25:41;1.80;;;1.80;;
15629;SDS011;7914;50.842;0.166;2022-11-15T04:28:08;1.87;;;1.87;;
15629;SDS011;7914;50.842;0.166;2022-11-15T04:30:35;1.97;;;1.90;;
15629;SDS011;7914;50.842;0.166;2022-11-15T04:33:01;1.70;;;1.70;;
15629;SDS011;7914;50.842;0.166;2022-11-15T04:35:26;1.80;;;1.80;;
15629;SDS011;7914;50.842;0.166;2022-11-15T04:37:53;1.40;;;1.40;;
15629;SDS011;7914;50.842;0.166;2022-11-15T04:40:19;1.80;;;1.80;;
15629;SDS011;7914;50.842;0.166;2022-11-15T04:42:45;1.70;;;1.70;;
15629;SDS011;7914;50.842;0.166;2022-11-15T04:45:11;1.80;;;1.80;;
15629;SDS011;7914;50.842;0.166;2022-11-15T04:47:36;2.10;;;2.00;;
15629;SDS011;7914;50.842;0.166;2022-11-15T04:50:02;2.10;;;2.00;;
15629;SDS011;7914;50.842;0.166;2022-11-15T04:52:29;1.87;;;1.87;;
15629;SDS011;7914;50.842;0.166;2022-11-15T04:54:54;1.80;;;1.80;;
15629;SDS011;7914;50.842;0.166;2022-11-15T04:57:20;1.70;;;1.70;;
15629;SDS011;7914;50.842;0.166;2022-11-15T04:59:46;1.90;;;1.90;;
15629;SDS011;7914;50.842;0.166;2022-11-15T05:02:11;2.00;;;1.90;;
15629;SDS011;7914;50.842;0.166;2022-11-15T05:04:37;2.53;;;2.43;;
15629;SDS011;7914;50.842;0.166;2022-11-15T05:07:04;1.80;;;1.80;;
15629;SDS011;7914;50.842;0.166;2022-11-15T05:09:29;2.40;;;2.30;;
15629;SDS011;7914;50.842;0.166;2022-11-15T05:11:55;2.23;;;2.13;;
15629;SDS011;7914;50.842;0.166;2022-11-15T05:14:21;2.30;;;2.20;;
15629;SDS011;7914;50.842;0.166;2022-11-15T05:16:47;2.20;;;2.10;;
15629;SDS011;7914;50.842;0.166;2022-11-15T05:19:12;2.23;;;2.13;;
15629;SDS011;7914;50.842;0.166;2022-11-15T05:21:38;2.60;;;2.50;;
15629;SDS011;7914;50.842;0.166;2022-11-15T05:24:04;2.20;;;2.10;;
15629;SDS011;7914;50.842;0.166;2022-11-15T05:26:30;2.27;;;2.17;;
15629;SDS011;7914;50.842;0.166;2022-11-15T05:28:56;2.23;;;2.13;;
15629;SDS011;7914;50.842;0.166;2022-11-15T05:31:23;1.90;;;1.90;;
15629;SDS011;7914;50.842;0.166;2022-11-15T05:33:50;2.40;;;2.30;;
15629;SDS011;7914;50.842;0.166;2022-11-15T05:38:58;2.40;;;2.30;;
15629;SDS011;7914;50.842;0.166;2022-11-15T05:41:26;1.97;;;1.90;;
15629;SDS011;7914;50.842;0.166;2022-11-15T05:44:01;2.30;;;2.20;;
15629;SDS011;7914;50.842;0.166;2022-11-15T05:46:30;1.83;;;1.83;;
15629;SDS011;7914;50.842;0.166;2022-11-15T05:48:55;1.80;;;1.80;;
15629;SDS011;7914;50.842;0.166;2022-11-15T05:51:22;2.20;;;2.10;;
15629;SDS011;7914;50.842;0.166;2022-11-15T05:53:48;2.10;;;2.00;;
15629;SDS011;7914;50.842;0.166;2022-11-15T05:56:16;2.23;;;2.13;;
15629;SDS011;7914;50.842;0.166;2022-11-15T05:58:42;2.30;;;2.20;;
15629;SDS011;7914;50.842;0.166;2022-11-15T06:01:08;2.10;;;2.00;;
15629;SDS011;7914;50.842;0.166;2022-11-15T06:03:34;1.80;;;1.80;;
15629;SDS011;7914;50.842;0.166;2022-11-15T06:06:00;1.90;;;1.90;;
15629;SDS011;7914;50.842;0.166;2022-11-15T06:08:25;2.10;;;2.00;;
15629;SDS011;7914;50.842;0.166;2022-11-15T06:10:52;1.87;;;1.87;;
15629;SDS011;7914;50.842;0.166;2022-11-15T06:13:17;2.30;;;2.20;;
15629;SDS011;7914;50.842;0.166;2022-11-15T06:15:43;2.17;;;2.07;;
15629;SDS011;7914;50.842;0.166;2022-11-15T06:18:09;2.10;;;2.00;;
15629;SDS011;7914;50.842;0.166;2022-11-15T06:20:35;2.20;;;2.10;;
15629;SDS011;7914;50.842;0.166;2022-11-15T06:23:01;2.10;;;2.00;;
15629;SDS011;7914;50.842;0.166;2022-11-15T06:25:29;2.50;;;2.40;;
15629;SDS011;7914;50.842;0.166;2022-11-15T06:27:56;2.30;;;2.20;;
15629;SDS011;7914;50.842;0.166;2022-11-15T06:30:24;2.50;;;2.40;;
15629;SDS011;7914;50.842;0.166;2022-11-15T06:32:51;2.40;;;2.30;;
15629;SDS011;7914;50.842;0.166;2022-11-15T06:35:25;2.50;;;2.40;;
15629;SDS011;7914;50.842;0.166;2022-11-15T06:37:51;2.00;;;1.90;;
15629;SDS011;7914;50.842;0.166;2022-11-15T06:40:17;2.20;;;2.10;;
15629;SDS011;7914;50.842;0.166;2022-11-15T06:42:43;2.30;;;2.20;;
15629;SDS011;7914;50.842;0.166;2022-11-15T06:45:08;2.90;;;2.80;;
15629;SDS011;7914;50.842;0.166;2022-11-15T06:47:34;2.70;;;2.60;;
15629;SDS011;7914;50.842;0.166;2022-11-15T06:50:00;1.97;;;1.90;;
15629;SDS011;7914;50.842;0.166;2022-11-15T06:52:25;2.67;;;2.57;;
15629;SDS011;7914;50.842;0.166;2022-11-15T06:54:51;2.67;;;2.57;;
15629;SDS011;7914;50.842;0.166;2022-11-15T06:57:17;2.60;;;2.50;;
15629;SDS011;7914;50.842;0.166;2022-11-15T06:59:43;2.60;;;2.50;;
15629;SDS011;7914;50.842;0.166;2022-11-15T07:02:12;2.30;;;2.20;;
15629;SDS011;7914;50.842;0.166;2022-11-15T07:04:38;2.50;;;2.40;;
15629;SDS011;7914;50.842;0.166;2022-11-15T07:07:04;2.30;;;2.20;;
15629;SDS011;7914;50.842;0.166;2022-11-15T07:09:30;2.40;;;2.30;;
15629;SDS011;7914;50.842;0.166;2022-11-15T07:11:55;2.67;;;2.57;;
15629;SDS011;7914;50.842;0.166;2022-11-15T07:14:21;2.77;;;2.67;;
15629;SDS011;7914;50.842;0.166;2022-11-15T07:16:47;2.83;;;2.73;;
15629;SDS011;7914;50.842;0.166;2022-11-15T07:19:12;3.67;;;3.57;;
15629;SDS011;7914;50.842;0.166;2022-11-15T07:21:38;3.20;;;3.10;;
15629;SDS011;7914;50.842;0.166;2022-11-15T07:24:04;3.30;;;3.20;;
15629;SDS011;7914;50.842;0.166;2022-11-15T07:26:30;3.40;;;3.30;;
15629;SDS011;7914;50.842;0.166;2022-11-15T07:28:55;3.57;;;3.47;;
15629;SDS011;7914;50.842;0.166;2022-11-15T07:31:21;3.73;;;3.63;;
15629;SDS011;7914;50.842;0.166;2022-11-15T07:33:47;3.87;;;3.77;;
15629;SDS011;7914;50.842;0.166;2022-11-15T07:36:13;4.40;;;4.20;;
15629;SDS011;7914;50.842;0.166;2022-11-15T07:38:38;4.80;;;4.60;;
15629;SDS011;7914;50.842;0.166;2022-11-15T07:41:04;4.60;;;4.40;;
15629;SDS011;7914;50.842;0.166;2022-11-15T07:43:31;5.70;;;5.50;;
15629;SDS011;7914;50.842;0.166;2022-11-15T07:45:58;4.93;;;4.73;;
15629;SDS011;7914;50.842;0.166;2022-11-15T07:48:29;5.67;;;5.47;;
15629;SDS011;7914;50.842;0.166;2022-11-15T07:50:55;5.90;;;5.70;;
15629;SDS011;7914;50.842;0.166;2022-11-15T07:53:20;6.20;;;6.00;;
15629;SDS011;7914;50.842;0.166;2022-11-15T07:55:46;6.80;;;6.50;;
15629;SDS011;7914;50.842;0.166;2022-11-15T07:58:12;7.23;;;6.93;;
15629;SDS011;7914;50.842;0.166;2022-11-15T08:00:38;8.30;;;8.00;;
15629;SDS011;7914;50.842;0.166;2022-11-15T08:03:04;8.60;;;8.27;;
15629;SDS011;7914;50.842;0.166;2022-11-15T08:05:32;10.03;;;9.63;;
15629;SDS011;7914;50.842;0.166;2022-11-15T08:07:58;11.10;;;10.60;;
15629;SDS011;7914;50.842;0.166;2022-11-15T08:10:24;10.50;;;10.10;;
15629;SDS011;7914;50.842;0.166;2022-11-15T08:13:00;10.87;;;10.37;;
15629;SDS011;7914;50.842;0.166;2022-11-15T08:15:27;12.77;;;12.20;;
15629;SDS011;7914;50.842;0.166;2022-11-15T08:17:57;13.10;;;12.50;;
15629;SDS011;7914;50.842;0.166;2022-11-15T08:20:25;12.10;;;11.60;;
15629;SDS011;7914;50.842;0.166;2022-11-15T08:22:55;13.10;;;12.50;;
15629;SDS011;7914;50.842;0.166;2022-11-15T08:25:21;12.63;;;12.03;;
15629;SDS011;7914;50.842;0.166;2022-11-15T08:27:50;12.80;;;12.20;;
15629;SDS011;7914;50.842;0.166;2022-11-15T08:30:16;12.20;;;11.70;;
15629;SDS011;7914;50.842;0.166;2022-11-15T08:32:42;13.60;;;13.00;;
15629;SDS011;7914;50.842;0.166;2022-11-15T08:35:08;13.77;;;13.17;;
15629;SDS011;7914;50.842;0.166;2022-11-15T08:37:34;13.00;;;12.40;;
15629;SDS011;7914;50.842;0.166;2022-11-15T08:40:00;14.43;;;13.73;;
15629;SDS011;7914;50.842;0.166;2022-11-15T08:42:26;13.63;;;13.03;;
15629;SDS011;7914;50.842;0.166;2022-11-15T08:44:51;13.03;;;12.43;;
15629;SDS011;7914;50.842;0.166;2022-11-15T08:47:17;13.40;;;12.80;;
15629;SDS011;7914;50.842;0.166;2022-11-15T08:49:43;14.60;;;13.90;;
15629;SDS011;7914;50.842;0.166;2022-11-15T08:52:08;14.00;;;13.40;;
15629;SDS011;7914;50.842;0.166;2022-11-15T08:54:34;13.93;;;13.33;;
15629;SDS011;7914;50.842;0.166;2022-11-15T08:57:00;14.83;;;14.13;;
15629;SDS011;7914;50.842;0.166;2022-11-15T08:59:25;13.53;;;12.93;;
15629;SDS011;7914;50.842;0.166;2022-11-15T09:01:51;13.80;;;13.20;;
15629;SDS011;7914;50.842;0.166;2022-11-15T09:04:17;12.93;;;12.33;;
15629;SDS011;7914;50.842;0.166;2022-11-15T09:06:42;11.30;;;10.80;;
15629;SDS011;7914;50.842;0.166;2022-11-15T09:09:08;10.53;;;10.13;;
15629;SDS011;7914;50.842;0.166;2022-11-15T09:11:34;11.43;;;10.93;;
15629;SDS011;7914;50.842;0.166;2022-11-15T09:14:00;11.07;;;10.57;;
15629;SDS011;7914;50.842;0.166;2022-11-15T09:16:25;11.23;;;10.73;;
15629;SDS011;7914;50.842;0.166;2022-11-15T09:18:52;12.23;;;11.73;;
15629;SDS011;7914;50.842;0.166;2022-11-15T09:21:19;11.33;;;10.83;;
15629;SDS011;7914;50.842;0.166;2022-11-15T09:23:44;12.17;;;11.67;;
15629;SDS011;7914;50.842;0.166;2022-11-15T09:26:10;11.93;;;11.43;;
15629;SDS011;7914;50.842;0.166;2022-11-15T09:28:36;12.37;;;11.87;;
15629;SDS011;7914;50.842;0.166;2022-11-15T09:31:04;11.93;;;11.43;;
15629;SDS011;7914;50.842;0.166;2022-11-15T09:33:31;12.10;;;11.60;;
15629;SDS011;7914;50.842;0.166;2022-11-15T09:36:06;12.73;;;12.13;;
15629;SDS011;7914;50.842;0.166;2022-11-15T09:38:33;12.87;;;12.27;;
15629;SDS011;7914;50.842;0.166;2022-11-15T09:41:13;12.83;;;12.23;;
15629;SDS011;7914;50.842;0.166;2022-11-15T09:43:50;13.90;;;13.30;;
15629;SDS011;7914;50.842;0.166;2022-11-15T09:49:00;13.57;;;12.97;;
15629;SDS011;7914;50.842;0.166;2022-11-15T09:56:41;12.07;;;11.57;;
15629;SDS011;7914;50.842;0.166;2022-11-15T10:02:18;13.43;;;12.83;;
15629;SDS011;7914;50.842;0.166;2022-11-15T10:04:46;12.73;;;12.13;;
15629;SDS011;7914;50.842;0.166;2022-11-15T10:09:52;12.83;;;12.23;;
15629;SDS011;7914;50.842;0.166;2022-11-15T10:12:18;11.73;;;11.23;;
15629;SDS011;7914;50.842;0.166;2022-11-15T10:14:45;11.20;;;10.70;;
15629;SDS011;7914;50.842;0.166;2022-11-15T10:17:17;12.97;;;12.37;;
15629;SDS011;7914;50.842;0.166;2022-11-15T10:22:53;14.13;;;13.53;;
15629;SDS011;7914;50.842;0.166;2022-11-15T10:25:40;12.73;;;12.13;;
15629;SDS011;7914;50.842;0.166;2022-11-15T10:30:43;13.50;;;12.90;;
15629;SDS011;7914;50.842;0.166;2022-11-15T10:38:47;14.20;;;13.60;;
15629;SDS011;7914;50.842;0.166;2022-11-15T10:41:17;13.20;;;12.60;;
15629;SDS011;7914;50.842;0.166;2022-11-15T10:43:45;13.63;;;13.03;;
15629;SDS011;7914;50.842;0.166;2022-11-15T10:46:25;12.57;;;12.03;;
15629;SDS011;7914;50.842;0.166;2022-11-15T10:48:51;13.17;;;12.57;;
15629;SDS011;7914;50.842;0.166;2022-11-15T10:51:26;14.70;;;14.00;;
15629;SDS011;7914;50.842;0.166;2022-11-15T10:53:54;13.30;;;12.70;;
15629;SDS011;7914;50.842;0.166;2022-11-15T10:56:23;13.60;;;13.00;;
15629;SDS011;7914;50.842;0.166;2022-11-15T10:58:52;13.10;;;12.50;;
15629;SDS011;7914;50.842;0.166;2022-11-15T11:01:27;12.93;;;12.33;;
15629;SDS011;7914;50.842;0.166;2022-11-15T11:04:01;13.50;;;12.90;;
15629;SDS011;7914;50.842;0.166;2022-11-15T11:06:27;13.53;;;12.93;;
15629;SDS011;7914;50.842;0.166;2022-11-15T11:08:54;12.93;;;12.33;;
15629;SDS011;7914;50.842;0.166;2022-11-15T11:11:43;13.33;;;12.73;;
15629;SDS011;7914;50.842;0.166;2022-11-15T11:14:12;13.50;;;12.90;;
15629;SDS011;7914;50.842;0.166;2022-11-15T11:16:44;13.10;;;12.50;;
15629;SDS011;7914;50.842;0.166;2022-11-15T11:24:36;14.70;;;14.00;;
15629;SDS011;7914;50.842;0.166;2022-11-15T11:27:39;14.53;;;13.83;;
15629;SDS011;7914;50.842;0.166;2022-11-15T11:35:59;15.77;;;15.07;;
15629;SDS011;7914;50.842;0.166;2022-11-15T11:47:09;15.83;;;15.13;;
15629;SDS011;7914;50.842;0.166;2022-11-15T11:52:23;16.13;;;15.33;;
15629;SDS011;7914;50.842;0.166;2022-11-15T11:55:04;16.27;;;15.47;;
15629;SDS011;7914;50.842;0.166;2022-11-15T11:57:48;15.70;;;15.00;;
15629;SDS011;7914;50.842;0.166;2022-11-15T12:00:23;15.43;;;14.73;;
15629;SDS011;7914;50.842;0.166;2022-11-15T12:11:10;15.27;;;14.57;;
15629;SDS011;7914;50.842;0.166;2022-11-15T12:13:39;15.90;;;15.10;;
15629;SDS011;7914;50.842;0.166;2022-11-15T12:18:52;15.33;;;14.63;;
15629;SDS011;7914;50.842;0.166;2022-11-15T12:24:04;16.43;;;15.63;;
15629;SDS011;7914;50.842;0.166;2022-11-15T12:26:40;16.60;;;15.80;;
15629;SDS011;7914;50.842;0.166;2022-11-15T12:29:12;16.20;;;15.40;;
15629;SDS011;7914;50.842;0.166;2022-11-15T12:31:48;17.13;;;16.33;;
15629;SDS011;7914;50.842;0.166;2022-11-15T12:36:45;16.73;;;15.93;;
15629;SDS011;7914;50.842;0.166;2022-11-15T12:39:14;16.40;;;15.60;;
15629;SDS011;7914;50.842;0.166;2022-11-15T12:41:41;16.90;;;16.10;;
15629;SDS011;7914;50.842;0.166;2022-11-15T13:02:30;15.63;;;14.93;;
15629;SDS011;7914;50.842;0.166;2022-11-15T13:17:42;16.73;;;15.93;;
15629;SDS011;7914;50.842;0.166;2022-11-15T13:22:48;18.20;;;17.30;;
15629;SDS011;7914;50.842;0.166;2022-11-15T13:28:02;17.33;;;16.53;;
15629;SDS011;7914;50.842;0.166;2022-11-15T13:30:35;18.27;;;17.37;;
15629;SDS011;7914;50.842;0.166;2022-11-15T13:33:14;17.40;;;16.60;;
15629;SDS011;7914;50.842;0.166;2022-11-15T13:35:46;16.53;;;15.73;;
15629;SDS011;7914;50.842;0.166;2022-11-15T13:40:56;16.07;;;15.37;;
15629;SDS011;7914;50.842;0.166;2022-11-15T13:43:28;15.70;;;15.00;;
15629;SDS011;7914;50.842;0.166;2022-11-15T13:56:42;14.20;;;13.60;;
15629;SDS011;7914;50.842;0.166;2022-11-15T13:59:15;14.30;;;13.70;;
15629;SDS011;7914;50.842;0.166;2022-11-15T14:01:49;13.60;;;13.00;;
15629;SDS011;7914;50.842;0.166;2022-11-15T14:04:18;12.40;;;11.90;;
15629;SDS011;7914;50.842;0.166;2022-11-15T14:06:47;11.43;;;10.93;;
15629;SDS011;7914;50.842;0.166;2022-11-15T14:11:54;9.87;;;9.47;;
15629;SDS011;7914;50.842;0.166;2022-11-15T14:14:22;9.50;;;9.10;;
15629;SDS011;7914;50.842;0.166;2022-11-15T14:16:51;9.03;;;8.63;;
15629;SDS011;7914;50.842;0.166;2022-11-15T14:24:47;7.83;;;7.53;;
15629;SDS011;7914;50.842;0.166;2022-11-15T14:27:30;7.77;;;7.47;;
15629;SDS011;7914;50.842;0.166;2022-11-15T14:29:57;8.10;;;7.80;;
15629;SDS011;7914;50.842;0.166;2022-11-15T14:32:23;7.73;;;7.43;;
15629;SDS011;7914;50.842;0.166;2022-11-15T14:34:58;7.50;;;7.20;;
15629;SDS011;7914;50.842;0.166;2022-11-15T14:37:26;7.40;;;7.10;;
15629;SDS011;7914;50.842;0.166;2022-11-15T14:39:53;6.63;;;6.33;;
15629;SDS011;7914;50.842;0.166;2022-11-15T14:42:19;7.17;;;6.87;;
15629;SDS011;7914;50.842;0.166;2022-11-15T14:44:48;7.13;;;6.83;;
15629;SDS011;7914;50.842;0.166;2022-11-15T14:47:14;6.70;;;6.40;;
15629;SDS011;7914;50.842;0.166;2022-11-15T14:49:40;6.70;;;6.40;;
15629;SDS011;7914;50.842;0.166;2022-11-15T14:54:52;6.70;;;6.40;;
15629;SDS011;7914;50.842;0.166;2022-11-15T14:57:18;6.60;;;6.30;;
15629;SDS011;7914;50.842;0.166;2022-11-15T14:59:44;6.67;;;6.37;;
15629;SDS011;7914;50.842;0.166;2022-11-15T15:02:20;5.90;;;5.70;;
15629;SDS011;7914;50.842;0.166;2022-11-15T15:04:49;6.10;;;5.90;;
15629;SDS011;7914;50.842;0.166;2022-11-15T15:07:15;6.00;;;5.80;;
15629;SDS011;7914;50.842;0.166;2022-11-15T15:09:42;6.40;;;6.20;;
15629;SDS011;7914;50.842;0.166;2022-11-15T15:12:19;6.70;;;6.40;;
15629;SDS011;7914;50.842;0.166;2022-11-15T15:14:46;5.60;;;5.40;;
15629;SDS011;7914;50.842;0.166;2022-11-15T15:17:13;5.57;;;5.37;;
15629;SDS011;7914;50.842;0.166;2022-11-15T15:19:39;4.80;;;4.60;;
15629;SDS011;7914;50.842;0.166;2022-11-15T15:22:05;5.07;;;4.87;;
15629;SDS011;7914;50.842;0.166;2022-11-15T15:24:34;5.20;;;5.00;;
15629;SDS011;7914;50.842;0.166;2022-11-15T15:27:00;4.50;;;4.30;;
15629;SDS011;7914;50.842;0.166;2022-11-15T15:29:25;3.97;;;3.87;;
15629;SDS011;7914;50.842;0.166;2022-11-15T15:31:51;3.93;;;3.83;;
15629;SDS011;7914;50.842;0.166;2022-11-15T15:34:17;3.63;;;3.53;;
15629;SDS011;7914;50.842;0.166;2022-11-15T15:36:42;4.33;;;4.13;;
15629;SDS011;7914;50.842;0.166;2022-11-15T15:39:09;4.50;;;4.30;;
15629;SDS011;7914;50.842;0.166;2022-11-15T15:41:36;4.43;;;4.23;;
15629;SDS011;7914;50.842;0.166;2022-11-15T15:44:02;3.93;;;3.83;;
15629;SDS011;7914;50.842;0.166;2022-11-15T15:46:28;4.03;;;3.93;;
15629;SDS011;7914;50.842;0.166;2022-11-15T15:48:53;3.93;;;3.83;;
15629;SDS011;7914;50.842;0.166;2022-11-15T15:51:19;4.10;;;4.00;;
15629;SDS011;7914;50.842;0.166;2022-11-15T15:53:45;3.63;;;3.53;;
15629;SDS011;7914;50.842;0.166;2022-11-15T15:56:11;3.90;;;3.80;;
15629;SDS011;7914;50.842;0.166;2022-11-15T15:58:37;3.57;;;3.47;;
15629;SDS011;7914;50.842;0.166;2022-11-15T16:01:03;3.87;;;3.77;;
15629;SDS011;7914;50.842;0.166;2022-11-15T16:03:29;3.83;;;3.73;;
15629;SDS011;7914;50.842;0.166;2022-11-15T16:05:54;4.57;;;4.37;;
15629;SDS011;7914;50.842;0.166;2022-11-15T16:08:21;4.60;;;4.40;;
15629;SDS011;7914;50.842;0.166;2022-11-15T16:10:48;3.93;;;3.83;;
15629;SDS011;7914;50.842;0.166;2022-11-15T16:13:15;3.57;;;3.47;;
15629;SDS011;7914;50.842;0.166;2022-11-15T16:15:41;2.70;;;2.60;;
15629;SDS011;7914;50.842;0.166;2022-11-15T16:18:25;3.20;;;3.10;;
15629;SDS011;7914;50.842;0.166;2022-11-15T16:20:51;2.60;;;2.50;;
15629;SDS011;7914;50.842;0.166;2022-11-15T16:23:21;2.60;;;2.50;;
15629;SDS011;7914;50.842;0.166;2022-11-15T16:25:55;2.20;;;2.10;;
15629;SDS011;7914;50.842;0.166;2022-11-15T16:28:23;2.10;;;2.00;;
15629;SDS011;7914;50.842;0.166;2022-11-15T16:31:03;2.40;;;2.30;;
15629;SDS011;7914;50.842;0.166;2022-11-15T16:33:30;2.20;;;2.10;;
15629;SDS011;7914;50.842;0.166;2022-11-15T16:35:56;2.40;;;2.30;;
15629;SDS011;7914;50.842;0.166;2022-11-15T16:38:22;2.40;;;2.30;;
15629;SDS011;7914;50.842;0.166;2022-11-15T16:40:48;2.50;;;2.40;;
15629;SDS011;7914;50.842;0.166;2022-11-15T16:43:14;2.37;;;2.27;;
15629;SDS011;7914;50.842;0.166;2022-11-15T16:45:39;2.40;;;2.30;;
15629;SDS011;7914;50.842;0.166;2022-11-15T16:48:05;2.40;;;2.30;;
15629;SDS011;7914;50.842;0.166;2022-11-15T16:50:32;2.53;;;2.43;;
15629;SDS011;7914;50.842;0.166;2022-11-15T16:53:05;2.40;;;2.30;;
15629;SDS011;7914;50.842;0.166;2022-11-15T16:55:31;2.27;;;2.17;;
15629;SDS011;7914;50.842;0.166;2022-11-15T16:57:57;2.30;;;2.20;;
15629;SDS011;7914;50.842;0.166;2022-11-15T17:00:23;2.10;;;2.00;;
15629;SDS011;7914;50.842;0.166;2022-11-15T17:02:49;2.40;;;2.30;;
15629;SDS011;7914;50.842;0.166;2022-11-15T17:05:16;2.20;;;2.10;;
15629;SDS011;7914;50.842;0.166;2022-11-15T17:07:45;1.83;;;1.83;;
15629;SDS011;7914;50.842;0.166;2022-11-15T17:10:18;2.20;;;2.10;;
15629;SDS011;7914;50.842;0.166;2022-11-15T17:12:45;1.73;;;1.73;;
15629;SDS011;7914;50.842;0.166;2022-11-15T17:15:11;1.80;;;1.80;;
15629;SDS011;7914;50.842;0.166;2022-11-15T17:17:38;2.80;;;2.70;;
15629;SDS011;7914;50.842;0.166;2022-11-15T17:20:04;3.50;;;3.40;;
15629;SDS011;7914;50.842;0.166;2022-11-15T17:22:37;3.70;;;3.60;;
15629;SDS011;7914;50.842;0.166;2022-11-15T17:25:02;3.37;;;3.27;;
15629;SDS011;7914;50.842;0.166;2022-11-15T17:27:29;4.07;;;3.97;;
15629;SDS011;7914;50.842;0.166;2022-11-15T17:29:55;4.40;;;4.20;;
15629;SDS011;7914;50.842;0.166;2022-11-15T17:32:21;3.80;;;3.70;;
15629;SDS011;7914;50.842;0.166;2022-11-15T17:34:46;3.73;;;3.63;;
15629;SDS011;7914;50.842;0.166;2022-11-15T17:37:12;4.17;;;4.07;;
15629;SDS011;7914;50.842;0.166;2022-11-15T17:39:38;3.33;;;3.23;;
15629;SDS011;7914;50.842;0.166;2022-11-15T17:42:03;3.90;;;3.80;;